sensor_id;sensor_type;location;lat;lon;timestamp;temperature;humidity
37204;DHT22;23098;48.054;10.636;2023-02-08T00:02:15;-5.20;99.90
37204;DHT22;23098;48.054;10.636;2023-02-08T00:04:40;-5.30;99.90
37204;DHT22;23098;48.054;10.636;2023-02-08T00:07:06;-5.30;99.90
37204;DHT22;23098;48.054;10.636;2023-02-08T00:09:31;-5.40;99.90
37204;DHT22;23098;48.054;10.636;2023-02-08T00:11:58;-5.40;99.90
37204;DHT22;23098;48.054;10.636;2023-02-08T00:14:24;-5.40;99.90
37204;DHT22;23098;48.054;10.636;2023-02-08T00:16:49;-5.50;99.90
37204;DHT22;23098;48.054;10.636;2023-02-08T00:19:15;-5.50;99.90
37204;DHT22;23098;48.054;10.636;2023-02-08T00:21:40;-5.50;99.90
37204;DHT22;23098;48.054;10.636;2023-02-08T00:24:06;-5.50;99.90
37204;DHT22;23098;48.054;10.636;2023-02-08T00:26:31;-5.60;99.90
37204;DHT22;23098;48.054;10.636;2023-02-08T00:28:57;-5.60;99.90
37204;DHT22;23098;48.054;10.636;2023-02-08T00:31:23;-5.60;99.90
37204;DHT22;23098;48.054;10.636;2023-02-08T00:33:48;-5.60;99.90
37204;DHT22;23098;48.054;10.636;2023-02-08T00:36:14;-5.60;99.90
37204;DHT22;23098;48.054;10.636;2023-02-08T00:38:39;-5.60;99.90
37204;DHT22;23098;48.054;10.636;2023-02-08T00:41:05;-5.60;99.90
37204;DHT22;23098;48.054;10.636;2023-02-08T00:43:31;-5.60;99.90
37204;DHT22;23098;48.054;10.636;2023-02-08T00:45:58;-5.60;99.90
37204;DHT22;23098;48.054;10.636;2023-02-08T00:48:25;-5.60;99.90
37204;DHT22;23098;48.054;10.636;2023-02-08T00:50:58;-5.60;99.90
37204;DHT22;23098;48.054;10.636;2023-02-08T00:53:24;-5.60;99.90
37204;DHT22;23098;48.054;10.636;2023-02-08T00:55:51;-5.70;99.90
37204;DHT22;23098;48.054;10.636;2023-02-08T00:58:17;-5.70;99.90
37204;DHT22;23098;48.054;10.636;2023-02-08T01:00:43;-5.70;99.90
37204;DHT22;23098;48.054;10.636;2023-02-08T01:03:08;-5.70;99.90
37204;DHT22;23098;48.054;10.636;2023-02-08T01:05:36;-5.70;99.90
37204;DHT22;23098;48.054;10.636;2023-02-08T01:08:02;-5.70;99.90
37204;DHT22;23098;48.054;10.636;2023-02-08T01:10:28;-5.70;99.90
37204;DHT22;23098;48.054;10.636;2023-02-08T01:12:53;-5.70;99.90
37204;DHT22;23098;48.054;10.636;2023-02-08T01:15:19;-5.70;99.90
37204;DHT22;23098;48.054;10.636;2023-02-08T01:17:45;-5.70;99.90
37204;DHT22;23098;48.054;10.636;2023-02-08T01:20:10;-5.80;99.90
37204;DHT22;23098;48.054;10.636;2023-02-08T01:22:36;-5.70;99.90
37204;DHT22;23098;48.054;10.636;2023-02-08T01:25:01;-5.80;99.90
37204;DHT22;23098;48.054;10.636;2023-02-08T01:27:27;-5.80;99.90
37204;DHT22;23098;48.054;10.636;2023-02-08T01:29:53;-5.80;99.90
37204;DHT22;23098;48.054;10.636;2023-02-08T01:32:18;-5.80;99.90
37204;DHT22;23098;48.054;10.636;2023-02-08T01:34:44;-5.80;99.90
37204;DHT22;23098;48.054;10.636;2023-02-08T01:37:09;-5.90;99.90
37204;DHT22;23098;48.054;10.636;2023-02-08T01:39:35;-5.90;99.90
37204;DHT22;23098;48.054;10.636;2023-02-08T01:42:00;-5.90;99.90
37204;DHT22;23098;48.054;10.636;2023-02-08T01:47:22;-5.90;99.90
37204;DHT22;23098;48.054;10.636;2023-02-08T01:49:48;-6.00;99.90
37204;DHT22;23098;48.054;10.636;2023-02-08T01:52:17;-6.00;99.90
37204;DHT22;23098;48.054;10.636;2023-02-08T01:54:52;-6.00;99.90
37204;DHT22;23098;48.054;10.636;2023-02-08T01:57:20;-6.00;99.90
37204;DHT22;23098;48.054;10.636;2023-02-08T01:59:51;-6.00;99.90
37204;DHT22;23098;48.054;10.636;2023-02-08T02:02:20;-6.00;99.90
37204;DHT22;23098;48.054;10.636;2023-02-08T02:04:47;-6.10;99.90
37204;DHT22;23098;48.054;10.636;2023-02-08T02:07:15;-6.10;99.90
37204;DHT22;23098;48.054;10.636;2023-02-08T02:09:50;-6.10;99.90
37204;DHT22;23098;48.054;10.636;2023-02-08T02:12:17;-6.10;99.90
37204;DHT22;23098;48.054;10.636;2023-02-08T02:14:43;-6.00;99.90
37204;DHT22;23098;48.054;10.636;2023-02-08T02:17:11;-6.00;99.90
37204;DHT22;23098;48.054;10.636;2023-02-08T02:20:01;-6.00;99.90
37204;DHT22;23098;48.054;10.636;2023-02-08T02:28:23;-6.10;99.90
37204;DHT22;23098;48.054;10.636;2023-02-08T02:31:10;-6.00;99.90
37204;DHT22;23098;48.054;10.636;2023-02-08T02:45:05;-6.20;99.90
37204;DHT22;23098;48.054;10.636;2023-02-08T02:48:05;-6.20;99.90
37204;DHT22;23098;48.054;10.636;2023-02-08T02:50:36;-6.20;99.90
37204;DHT22;23098;48.054;10.636;2023-02-08T02:53:11;-6.20;99.90
37204;DHT22;23098;48.054;10.636;2023-02-08T02:55:49;-6.30;99.90
37204;DHT22;23098;48.054;10.636;2023-02-08T02:58:19;-6.30;99.90
37204;DHT22;23098;48.054;10.636;2023-02-08T03:00:52;-6.30;99.90
37204;DHT22;23098;48.054;10.636;2023-02-08T03:03:21;-6.30;99.90
37204;DHT22;23098;48.054;10.636;2023-02-08T03:05:48;-6.30;99.90
37204;DHT22;23098;48.054;10.636;2023-02-08T03:08:25;-6.30;99.90
37204;DHT22;23098;48.054;10.636;2023-02-08T03:14:12;-6.30;99.90
37204;DHT22;23098;48.054;10.636;2023-02-08T03:22:04;-6.30;99.90
37204;DHT22;23098;48.054;10.636;2023-02-08T03:24:43;-6.30;99.90
37204;DHT22;23098;48.054;10.636;2023-02-08T03:27:26;-6.30;99.90
37204;DHT22;23098;48.054;10.636;2023-02-08T03:30:06;-6.40;99.90
37204;DHT22;23098;48.054;10.636;2023-02-08T03:32:42;-6.40;99.90
37204;DHT22;23098;48.054;10.636;2023-02-08T03:37:38;-6.40;99.90
37204;DHT22;23098;48.054;10.636;2023-02-08T03:40:13;-6.40;99.90
37204;DHT22;23098;48.054;10.636;2023-02-08T03:42:41;-6.50;99.90
37204;DHT22;23098;48.054;10.636;2023-02-08T03:45:19;-6.50;99.90
37204;DHT22;23098;48.054;10.636;2023-02-08T03:47:48;-6.50;99.90
37204;DHT22;23098;48.054;10.636;2023-02-08T03:50:17;-6.60;99.90
37204;DHT22;23098;48.054;10.636;2023-02-08T03:52:46;-6.60;99.90
37204;DHT22;23098;48.054;10.636;2023-02-08T03:55:20;-6.60;99.90
37204;DHT22;23098;48.054;10.636;2023-02-08T03:58:20;-6.60;99.90
37204;DHT22;23098;48.054;10.636;2023-02-08T04:00:53;-6.60;99.90
37204;DHT22;23098;48.054;10.636;2023-02-08T04:03:24;-6.60;99.90
37204;DHT22;23098;48.054;10.636;2023-02-08T04:05:51;-6.70;99.90
37204;DHT22;23098;48.054;10.636;2023-02-08T04:08:17;-6.70;99.90
37204;DHT22;23098;48.054;10.636;2023-02-08T04:10:42;-6.70;99.90
37204;DHT22;23098;48.054;10.636;2023-02-08T04:13:08;-6.60;99.90
37204;DHT22;23098;48.054;10.636;2023-02-08T04:15:33;-6.60;99.90
37204;DHT22;23098;48.054;10.636;2023-02-08T04:17:59;-6.60;99.90
37204;DHT22;23098;48.054;10.636;2023-02-08T04:20:24;-6.60;99.90
37204;DHT22;23098;48.054;10.636;2023-02-08T04:22:50;-6.60;99.90
37204;DHT22;23098;48.054;10.636;2023-02-08T04:25:16;-6.60;99.90
37204;DHT22;23098;48.054;10.636;2023-02-08T04:27:41;-6.60;99.90
37204;DHT22;23098;48.054;10.636;2023-02-08T04:30:07;-6.50;99.90
37204;DHT22;23098;48.054;10.636;2023-02-08T04:32:33;-6.50;99.90
37204;DHT22;23098;48.054;10.636;2023-02-08T04:34:58;-6.50;99.90
37204;DHT22;23098;48.054;10.636;2023-02-08T04:37:24;-6.50;99.90
37204;DHT22;23098;48.054;10.636;2023-02-08T04:39:50;-6.60;99.90
37204;DHT22;23098;48.054;10.636;2023-02-08T04:42:15;-6.60;99.90
37204;DHT22;23098;48.054;10.636;2023-02-08T04:44:41;-6.60;99.90
37204;DHT22;23098;48.054;10.636;2023-02-08T04:47:06;-6.60;99.90
37204;DHT22;23098;48.054;10.636;2023-02-08T04:49:32;-6.60;99.90
37204;DHT22;23098;48.054;10.636;2023-02-08T04:51:58;-6.60;99.90
37204;DHT22;23098;48.054;10.636;2023-02-08T04:54:23;-6.60;99.90
37204;DHT22;23098;48.054;10.636;2023-02-08T04:56:49;-6.60;99.90
37204;DHT22;23098;48.054;10.636;2023-02-08T04:59:15;-6.60;99.90
37204;DHT22;23098;48.054;10.636;2023-02-08T05:01:41;-6.60;99.90
37204;DHT22;23098;48.054;10.636;2023-02-08T05:04:06;-6.70;99.90
37204;DHT22;23098;48.054;10.636;2023-02-08T05:06:32;-6.70;99.90
37204;DHT22;23098;48.054;10.636;2023-02-08T05:08:57;-6.70;99.90
37204;DHT22;23098;48.054;10.636;2023-02-08T05:11:23;-6.70;99.90
37204;DHT22;23098;48.054;10.636;2023-02-08T05:13:50;-6.70;99.90
37204;DHT22;23098;48.054;10.636;2023-02-08T05:16:16;-6.70;99.90
37204;DHT22;23098;48.054;10.636;2023-02-08T05:18:42;-6.70;99.90
37204;DHT22;23098;48.054;10.636;2023-02-08T05:21:08;-6.70;99.90
37204;DHT22;23098;48.054;10.636;2023-02-08T05:23:34;-6.70;99.90
37204;DHT22;23098;48.054;10.636;2023-02-08T05:25:59;-6.70;99.90
37204;DHT22;23098;48.054;10.636;2023-02-08T05:28:29;-6.80;99.90
37204;DHT22;23098;48.054;10.636;2023-02-08T05:30:54;-6.70;99.90
37204;DHT22;23098;48.054;10.636;2023-02-08T05:33:20;-6.80;99.90
37204;DHT22;23098;48.054;10.636;2023-02-08T05:35:45;-6.80;99.90
37204;DHT22;23098;48.054;10.636;2023-02-08T05:38:11;-6.80;99.90
37204;DHT22;23098;48.054;10.636;2023-02-08T05:40:36;-6.70;99.90
37204;DHT22;23098;48.054;10.636;2023-02-08T05:43:02;-6.80;99.90
37204;DHT22;23098;48.054;10.636;2023-02-08T05:45:28;-6.70;99.90
37204;DHT22;23098;48.054;10.636;2023-02-08T05:47:53;-6.70;99.90
37204;DHT22;23098;48.054;10.636;2023-02-08T05:50:19;-6.70;99.90
37204;DHT22;23098;48.054;10.636;2023-02-08T05:52:44;-6.60;99.90
37204;DHT22;23098;48.054;10.636;2023-02-08T05:55:10;-6.60;99.90
37204;DHT22;23098;48.054;10.636;2023-02-08T05:57:36;-6.60;99.90
37204;DHT22;23098;48.054;10.636;2023-02-08T06:00:04;-6.60;99.90
37204;DHT22;23098;48.054;10.636;2023-02-08T06:02:30;-6.60;99.90
37204;DHT22;23098;48.054;10.636;2023-02-08T06:04:56;-6.60;99.90
37204;DHT22;23098;48.054;10.636;2023-02-08T06:07:22;-6.60;99.90
37204;DHT22;23098;48.054;10.636;2023-02-08T06:09:47;-6.60;99.90
37204;DHT22;23098;48.054;10.636;2023-02-08T06:12:13;-6.60;99.90
37204;DHT22;23098;48.054;10.636;2023-02-08T06:14:38;-6.60;99.90
37204;DHT22;23098;48.054;10.636;2023-02-08T06:17:04;-6.60;99.90
37204;DHT22;23098;48.054;10.636;2023-02-08T06:19:29;-6.70;99.90
37204;DHT22;23098;48.054;10.636;2023-02-08T06:21:55;-6.70;99.90
37204;DHT22;23098;48.054;10.636;2023-02-08T06:24:20;-6.70;99.90
37204;DHT22;23098;48.054;10.636;2023-02-08T06:26:46;-6.70;99.90
37204;DHT22;23098;48.054;10.636;2023-02-08T06:29:11;-6.80;99.90
37204;DHT22;23098;48.054;10.636;2023-02-08T06:31:37;-6.80;99.90
37204;DHT22;23098;48.054;10.636;2023-02-08T06:34:02;-6.80;99.90
37204;DHT22;23098;48.054;10.636;2023-02-08T06:36:28;-6.80;99.90
37204;DHT22;23098;48.054;10.636;2023-02-08T06:38:53;-6.80;99.90
37204;DHT22;23098;48.054;10.636;2023-02-08T06:41:19;-6.90;99.90
37204;DHT22;23098;48.054;10.636;2023-02-08T06:43:45;-6.80;99.90
37204;DHT22;23098;48.054;10.636;2023-02-08T06:46:10;-6.80;99.90
37204;DHT22;23098;48.054;10.636;2023-02-08T06:48:36;-6.80;99.90
37204;DHT22;23098;48.054;10.636;2023-02-08T06:51:02;-6.80;99.90
37204;DHT22;23098;48.054;10.636;2023-02-08T06:53:27;-6.80;99.90
37204;DHT22;23098;48.054;10.636;2023-02-08T06:55:53;-6.80;99.90
37204;DHT22;23098;48.054;10.636;2023-02-08T06:58:19;-6.70;99.90
37204;DHT22;23098;48.054;10.636;2023-02-08T07:00:45;-6.70;99.90
37204;DHT22;23098;48.054;10.636;2023-02-08T07:03:12;-6.60;99.90
37204;DHT22;23098;48.054;10.636;2023-02-08T07:05:38;-6.50;99.90
37204;DHT22;23098;48.054;10.636;2023-02-08T07:08:04;-6.50;99.90
37204;DHT22;23098;48.054;10.636;2023-02-08T07:10:30;-6.50;99.90
37204;DHT22;23098;48.054;10.636;2023-02-08T07:12:56;-6.50;99.90
37204;DHT22;23098;48.054;10.636;2023-02-08T07:15:22;-6.40;99.90
37204;DHT22;23098;48.054;10.636;2023-02-08T07:17:47;-6.40;99.90
37204;DHT22;23098;48.054;10.636;2023-02-08T07:20:13;-6.40;99.90
37204;DHT22;23098;48.054;10.636;2023-02-08T07:22:39;-6.40;99.90
37204;DHT22;23098;48.054;10.636;2023-02-08T07:25:06;-6.30;99.90
37204;DHT22;23098;48.054;10.636;2023-02-08T07:27:32;-6.30;99.90
37204;DHT22;23098;48.054;10.636;2023-02-08T07:30:08;-6.20;99.90
37204;DHT22;23098;48.054;10.636;2023-02-08T07:32:34;-6.10;99.90
37204;DHT22;23098;48.054;10.636;2023-02-08T07:35:00;-6.10;99.90
37204;DHT22;23098;48.054;10.636;2023-02-08T07:37:25;-6.10;99.90
37204;DHT22;23098;48.054;10.636;2023-02-08T07:39:51;-6.00;99.90
37204;DHT22;23098;48.054;10.636;2023-02-08T07:42:17;-5.90;99.90
37204;DHT22;23098;48.054;10.636;2023-02-08T07:44:43;-5.90;99.90
37204;DHT22;23098;48.054;10.636;2023-02-08T07:47:08;-5.90;99.90
37204;DHT22;23098;48.054;10.636;2023-02-08T07:49:34;-5.80;99.90
37204;DHT22;23098;48.054;10.636;2023-02-08T07:52:00;-5.80;99.90
37204;DHT22;23098;48.054;10.636;2023-02-08T07:54:26;-5.70;99.90
37204;DHT22;23098;48.054;10.636;2023-02-08T07:56:51;-5.60;99.90
37204;DHT22;23098;48.054;10.636;2023-02-08T07:59:17;-5.60;99.90
37204;DHT22;23098;48.054;10.636;2023-02-08T08:01:43;-5.50;99.90
37204;DHT22;23098;48.054;10.636;2023-02-08T08:04:08;-5.40;99.90
37204;DHT22;23098;48.054;10.636;2023-02-08T08:06:35;-5.30;99.90
37204;DHT22;23098;48.054;10.636;2023-02-08T08:09:01;-5.20;99.90
37204;DHT22;23098;48.054;10.636;2023-02-08T08:11:27;-5.10;99.90
37204;DHT22;23098;48.054;10.636;2023-02-08T08:14:06;-5.10;99.90
37204;DHT22;23098;48.054;10.636;2023-02-08T08:16:31;-5.00;99.90
37204;DHT22;23098;48.054;10.636;2023-02-08T08:18:57;-4.90;99.90
37204;DHT22;23098;48.054;10.636;2023-02-08T08:21:22;-4.90;99.90
37204;DHT22;23098;48.054;10.636;2023-02-08T08:23:56;-4.80;99.90
37204;DHT22;23098;48.054;10.636;2023-02-08T08:26:22;-4.60;99.90
37204;DHT22;23098;48.054;10.636;2023-02-08T08:28:47;-4.60;99.90
37204;DHT22;23098;48.054;10.636;2023-02-08T08:31:15;-4.50;99.90
37204;DHT22;23098;48.054;10.636;2023-02-08T08:33:41;-4.40;99.90
37204;DHT22;23098;48.054;10.636;2023-02-08T08:36:07;-4.30;99.90
37204;DHT22;23098;48.054;10.636;2023-02-08T08:38:33;-4.20;99.90
37204;DHT22;23098;48.054;10.636;2023-02-08T08:40:59;-4.20;99.90
37204;DHT22;23098;48.054;10.636;2023-02-08T08:43:25;-4.20;99.90
37204;DHT22;23098;48.054;10.636;2023-02-08T08:45:50;-4.10;99.90
37204;DHT22;23098;48.054;10.636;2023-02-08T08:48:17;-3.80;99.90
37204;DHT22;23098;48.054;10.636;2023-02-08T08:50:43;-3.80;99.90
37204;DHT22;23098;48.054;10.636;2023-02-08T08:53:11;-3.70;99.90
37204;DHT22;23098;48.054;10.636;2023-02-08T08:55:40;-3.80;99.90
37204;DHT22;23098;48.054;10.636;2023-02-08T08:58:08;-3.70;99.90
37204;DHT22;23098;48.054;10.636;2023-02-08T09:00:34;-3.30;99.90
37204;DHT22;23098;48.054;10.636;2023-02-08T09:03:01;-3.20;99.90
37204;DHT22;23098;48.054;10.636;2023-02-08T09:05:27;-3.30;99.90
37204;DHT22;23098;48.054;10.636;2023-02-08T09:07:53;-3.30;99.90
37204;DHT22;23098;48.054;10.636;2023-02-08T09:10:18;-3.10;99.90
37204;DHT22;23098;48.054;10.636;2023-02-08T09:12:47;-3.10;99.90
37204;DHT22;23098;48.054;10.636;2023-02-08T09:15:13;-2.90;99.90
37204;DHT22;23098;48.054;10.636;2023-02-08T09:17:44;-2.70;99.90
37204;DHT22;23098;48.054;10.636;2023-02-08T09:20:33;-2.60;99.90
37204;DHT22;23098;48.054;10.636;2023-02-08T09:23:01;-2.50;99.90
37204;DHT22;23098;48.054;10.636;2023-02-08T09:25:27;-2.50;99.90
37204;DHT22;23098;48.054;10.636;2023-02-08T09:27:52;-2.30;99.90
37204;DHT22;23098;48.054;10.636;2023-02-08T09:30:18;-2.20;99.90
37204;DHT22;23098;48.054;10.636;2023-02-08T09:32:46;-2.40;99.90
37204;DHT22;23098;48.054;10.636;2023-02-08T09:35:12;-2.40;99.90
37204;DHT22;23098;48.054;10.636;2023-02-08T09:37:39;-2.20;99.90
37204;DHT22;23098;48.054;10.636;2023-02-08T09:40:05;-2.00;99.90
37204;DHT22;23098;48.054;10.636;2023-02-08T09:45:37;-2.00;99.90
37204;DHT22;23098;48.054;10.636;2023-02-08T09:48:39;-2.20;99.90
37204;DHT22;23098;48.054;10.636;2023-02-08T09:51:29;-1.80;99.90
37204;DHT22;23098;48.054;10.636;2023-02-08T09:54:33;-1.80;99.90
37204;DHT22;23098;48.054;10.636;2023-02-08T10:00:03;-1.90;99.40
37204;DHT22;23098;48.054;10.636;2023-02-08T10:02:32;-1.90;99.20
37204;DHT22;23098;48.054;10.636;2023-02-08T10:05:04;-1.60;99.30
37204;DHT22;23098;48.054;10.636;2023-02-08T10:27:39;-1.00;98.80
37204;DHT22;23098;48.054;10.636;2023-02-08T10:30:12;-0.40;98.80
37204;DHT22;23098;48.054;10.636;2023-02-08T10:33:00;-0.70;98.00
37204;DHT22;23098;48.054;10.636;2023-02-08T10:35:36;-0.60;98.50
37204;DHT22;23098;48.054;10.636;2023-02-08T10:40:48;-0.60;98.10
37204;DHT22;23098;48.054;10.636;2023-02-08T10:46:07;-0.50;98.20
37204;DHT22;23098;48.054;10.636;2023-02-08T10:51:29;-0.20;98.60
37204;DHT22;23098;48.054;10.636;2023-02-08T10:53:56;-0.20;98.10
37204;DHT22;23098;48.054;10.636;2023-02-08T11:01:45;-0.30;97.70
37204;DHT22;23098;48.054;10.636;2023-02-08T11:04:12;-0.10;98.30
37204;DHT22;23098;48.054;10.636;2023-02-08T11:06:41;-0.20;98.20
37204;DHT22;23098;48.054;10.636;2023-02-08T11:09:26;-0.10;97.50
37204;DHT22;23098;48.054;10.636;2023-02-08T11:11:56;0.00;97.90
37204;DHT22;23098;48.054;10.636;2023-02-08T11:14:26;0.10;97.70
37204;DHT22;23098;48.054;10.636;2023-02-08T11:16:55;-0.30;97.10
37204;DHT22;23098;48.054;10.636;2023-02-08T11:19:37;-0.40;96.90
37204;DHT22;23098;48.054;10.636;2023-02-08T11:22:22;0.00;97.80
37204;DHT22;23098;48.054;10.636;2023-02-08T11:25:00;0.00;97.30
37204;DHT22;23098;48.054;10.636;2023-02-08T11:32:41;0.10;97.40
37204;DHT22;23098;48.054;10.636;2023-02-08T11:35:20;0.30;97.60
37204;DHT22;23098;48.054;10.636;2023-02-08T11:37:55;0.30;97.40
37204;DHT22;23098;48.054;10.636;2023-02-08T11:40:25;0.40;97.70
37204;DHT22;23098;48.054;10.636;2023-02-08T11:42:53;0.10;97.60
37204;DHT22;23098;48.054;10.636;2023-02-08T11:45:29;0.30;97.50
37204;DHT22;23098;48.054;10.636;2023-02-08T11:47:56;0.30;97.40
37204;DHT22;23098;48.054;10.636;2023-02-08T11:50:32;0.50;97.00
37204;DHT22;23098;48.054;10.636;2023-02-08T11:53:05;0.50;97.10
37204;DHT22;23098;48.054;10.636;2023-02-08T11:55:32;0.90;96.70
37204;DHT22;23098;48.054;10.636;2023-02-08T12:00:32;1.80;96.80
37204;DHT22;23098;48.054;10.636;2023-02-08T12:03:04;1.30;97.10
37204;DHT22;23098;48.054;10.636;2023-02-08T12:06:03;1.50;97.20
37204;DHT22;23098;48.054;10.636;2023-02-08T12:19:45;1.60;96.60
37204;DHT22;23098;48.054;10.636;2023-02-08T12:22:23;1.20;96.90
37204;DHT22;23098;48.054;10.636;2023-02-08T12:30:39;0.80;98.00
37204;DHT22;23098;48.054;10.636;2023-02-08T12:36:11;1.00;98.10
37204;DHT22;23098;48.054;10.636;2023-02-08T12:41:39;0.70;98.20
37204;DHT22;23098;48.054;10.636;2023-02-08T12:50:09;1.00;98.00
37204;DHT22;23098;48.054;10.636;2023-02-08T12:52:46;0.90;98.30
37204;DHT22;23098;48.054;10.636;2023-02-08T12:55:25;1.10;98.70
37204;DHT22;23098;48.054;10.636;2023-02-08T12:58:23;0.90;98.90
37204;DHT22;23098;48.054;10.636;2023-02-08T13:00:59;1.10;98.70
37204;DHT22;23098;48.054;10.636;2023-02-08T13:06:22;0.90;98.60
37204;DHT22;23098;48.054;10.636;2023-02-08T13:09:16;0.30;99.20
37204;DHT22;23098;48.054;10.636;2023-02-08T13:17:21;0.60;99.50
37204;DHT22;23098;48.054;10.636;2023-02-08T13:25:33;0.90;99.30
37204;DHT22;23098;48.054;10.636;2023-02-08T13:28:05;0.90;98.60
37204;DHT22;23098;48.054;10.636;2023-02-08T13:30:34;0.50;99.30
37204;DHT22;23098;48.054;10.636;2023-02-08T13:33:15;0.40;99.50
37204;DHT22;23098;48.054;10.636;2023-02-08T13:36:27;0.60;99.30
37204;DHT22;23098;48.054;10.636;2023-02-08T13:38:57;0.60;99.60
37204;DHT22;23098;48.054;10.636;2023-02-08T13:41:24;0.60;99.50
37204;DHT22;23098;48.054;10.636;2023-02-08T13:43:57;0.70;99.30
37204;DHT22;23098;48.054;10.636;2023-02-08T13:46:26;0.70;99.30
37204;DHT22;23098;48.054;10.636;2023-02-08T13:48:55;0.50;99.90
37204;DHT22;23098;48.054;10.636;2023-02-08T13:59:32;0.70;99.70
37204;DHT22;23098;48.054;10.636;2023-02-08T14:17:46;0.50;99.80
37204;DHT22;23098;48.054;10.636;2023-02-08T14:20:27;0.30;99.90
37204;DHT22;23098;48.054;10.636;2023-02-08T14:23:03;-0.10;99.90
37204;DHT22;23098;48.054;10.636;2023-02-08T14:26:22;0.10;99.90
37204;DHT22;23098;48.054;10.636;2023-02-08T14:28:57;0.00;99.90
37204;DHT22;23098;48.054;10.636;2023-02-08T14:41:56;-0.10;99.90
37204;DHT22;23098;48.054;10.636;2023-02-08T14:49:41;-0.20;99.90
37204;DHT22;23098;48.054;10.636;2023-02-08T14:52:23;-0.40;99.90
37204;DHT22;23098;48.054;10.636;2023-02-08T14:55:07;-0.60;99.90
37204;DHT22;23098;48.054;10.636;2023-02-08T14:57:39;-0.40;99.90
37204;DHT22;23098;48.054;10.636;2023-02-08T15:00:27;-0.50;99.90
37204;DHT22;23098;48.054;10.636;2023-02-08T15:02:55;-0.40;99.90
37204;DHT22;23098;48.054;10.636;2023-02-08T15:05:37;-0.50;99.90
37204;DHT22;23098;48.054;10.636;2023-02-08T15:08:05;-0.60;99.90
37204;DHT22;23098;48.054;10.636;2023-02-08T15:10:32;-0.50;99.90
37204;DHT22;23098;48.054;10.636;2023-02-08T15:13:04;-0.60;99.90
37204;DHT22;23098;48.054;10.636;2023-02-08T15:15:34;-0.70;99.90
37204;DHT22;23098;48.054;10.636;2023-02-08T15:18:02;-0.90;99.90
37204;DHT22;23098;48.054;10.636;2023-02-08T15:20:31;-0.90;99.90
37204;DHT22;23098;48.054;10.636;2023-02-08T15:25:29;-1.00;99.90
37204;DHT22;23098;48.054;10.636;2023-02-08T15:28:19;-1.00;99.90
37204;DHT22;23098;48.054;10.636;2023-02-08T15:30:45;-1.00;99.90
37204;DHT22;23098;48.054;10.636;2023-02-08T15:33:17;-1.00;99.90
37204;DHT22;23098;48.054;10.636;2023-02-08T15:35:44;-1.00;99.90
37204;DHT22;23098;48.054;10.636;2023-02-08T15:38:19;-1.00;99.90
37204;DHT22;23098;48.054;10.636;2023-02-08T15:41:05;-1.10;99.90
37204;DHT22;23098;48.054;10.636;2023-02-08T15:43:36;-1.20;99.90
37204;DHT22;23098;48.054;10.636;2023-02-08T15:46:05;-1.20;99.90
37204;DHT22;23098;48.054;10.636;2023-02-08T15:48:49;-1.30;99.90
37204;DHT22;23098;48.054;10.636;2023-02-08T15:51:22;-1.30;99.90
37204;DHT22;23098;48.054;10.636;2023-02-08T15:53:51;-1.40;99.90
37204;DHT22;23098;48.054;10.636;2023-02-08T16:01:40;-1.50;99.90
37204;DHT22;23098;48.054;10.636;2023-02-08T16:06:54;-1.50;99.90
37204;DHT22;23098;48.054;10.636;2023-02-08T16:14:26;-1.70;99.90
37204;DHT22;23098;48.054;10.636;2023-02-08T16:16:56;-1.70;99.90
37204;DHT22;23098;48.054;10.636;2023-02-08T16:19:24;-1.70;99.90
37204;DHT22;23098;48.054;10.636;2023-02-08T16:21:52;-1.80;99.90
37204;DHT22;23098;48.054;10.636;2023-02-08T16:24:25;-1.80;99.90
37204;DHT22;23098;48.054;10.636;2023-02-08T16:27:03;-1.80;99.90
37204;DHT22;23098;48.054;10.636;2023-02-08T16:29:35;-1.90;99.90
37204;DHT22;23098;48.054;10.636;2023-02-08T16:32:05;-1.80;99.90
37204;DHT22;23098;48.054;10.636;2023-02-08T16:34:37;-1.90;99.90
37204;DHT22;23098;48.054;10.636;2023-02-08T16:37:03;-1.90;99.90
37204;DHT22;23098;48.054;10.636;2023-02-08T16:39:38;-2.00;99.90
37204;DHT22;23098;48.054;10.636;2023-02-08T16:45:13;-2.10;99.90
37204;DHT22;23098;48.054;10.636;2023-02-08T16:47:44;-2.20;99.90
37204;DHT22;23098;48.054;10.636;2023-02-08T16:50:13;-2.20;99.90
37204;DHT22;23098;48.054;10.636;2023-02-08T16:52:39;-2.20;99.90
37204;DHT22;23098;48.054;10.636;2023-02-08T16:55:06;-2.20;99.90
37204;DHT22;23098;48.054;10.636;2023-02-08T16:57:49;-2.30;99.90
37204;DHT22;23098;48.054;10.636;2023-02-08T17:00:21;-2.30;99.90
37204;DHT22;23098;48.054;10.636;2023-02-08T17:02:47;-2.40;99.90
37204;DHT22;23098;48.054;10.636;2023-02-08T17:05:14;-2.40;99.90
37204;DHT22;23098;48.054;10.636;2023-02-08T17:07:39;-2.40;99.90
37204;DHT22;23098;48.054;10.636;2023-02-08T17:10:07;-2.40;99.90
37204;DHT22;23098;48.054;10.636;2023-02-08T17:12:33;-2.50;99.90
37204;DHT22;23098;48.054;10.636;2023-02-08T17:14:59;-2.50;99.90
37204;DHT22;23098;48.054;10.636;2023-02-08T17:17:24;-2.50;99.90
37204;DHT22;23098;48.054;10.636;2023-02-08T17:19:50;-2.50;99.90
37204;DHT22;23098;48.054;10.636;2023-02-08T17:22:16;-2.50;99.90
37204;DHT22;23098;48.054;10.636;2023-02-08T17:24:41;-2.50;99.90
37204;DHT22;23098;48.054;10.636;2023-02-08T17:27:11;-2.60;99.90
37204;DHT22;23098;48.054;10.636;2023-02-08T17:29:38;-2.60;99.90
37204;DHT22;23098;48.054;10.636;2023-02-08T17:32:04;-2.60;99.90
37204;DHT22;23098;48.054;10.636;2023-02-08T17:34:29;-2.70;99.90
37204;DHT22;23098;48.054;10.636;2023-02-08T17:36:56;-2.70;99.90
37204;DHT22;23098;48.054;10.636;2023-02-08T17:39:22;-2.80;99.90
37204;DHT22;23098;48.054;10.636;2023-02-08T17:41:47;-2.80;99.90
37204;DHT22;23098;48.054;10.636;2023-02-08T17:44:13;-2.80;99.90
37204;DHT22;23098;48.054;10.636;2023-02-08T17:46:39;-2.80;99.90
37204;DHT22;23098;48.054;10.636;2023-02-08T17:49:05;-2.80;99.90
37204;DHT22;23098;48.054;10.636;2023-02-08T17:51:31;-2.80;99.90
37204;DHT22;23098;48.054;10.636;2023-02-08T17:53:57;-2.80;99.90
37204;DHT22;23098;48.054;10.636;2023-02-08T17:56:24;-2.90;99.90
37204;DHT22;23098;48.054;10.636;2023-02-08T17:58:51;-2.90;99.90
37204;DHT22;23098;48.054;10.636;2023-02-08T18:01:22;-2.90;99.90
37204;DHT22;23098;48.054;10.636;2023-02-08T18:03:49;-2.90;99.90
37204;DHT22;23098;48.054;10.636;2023-02-08T18:06:15;-3.00;99.90
37204;DHT22;23098;48.054;10.636;2023-02-08T18:08:41;-3.00;99.90
37204;DHT22;23098;48.054;10.636;2023-02-08T18:11:13;-3.00;99.90
37204;DHT22;23098;48.054;10.636;2023-02-08T18:13:42;-3.00;99.90
37204;DHT22;23098;48.054;10.636;2023-02-08T18:16:14;-3.00;99.90
37204;DHT22;23098;48.054;10.636;2023-02-08T18:18:41;-3.00;99.90
37204;DHT22;23098;48.054;10.636;2023-02-08T18:21:18;-3.00;99.90
37204;DHT22;23098;48.054;10.636;2023-02-08T18:23:44;-3.10;99.90
37204;DHT22;23098;48.054;10.636;2023-02-08T18:26:12;-3.10;99.90
37204;DHT22;23098;48.054;10.636;2023-02-08T18:28:38;-3.10;99.90
37204;DHT22;23098;48.054;10.636;2023-02-08T18:31:06;-3.10;99.90
37204;DHT22;23098;48.054;10.636;2023-02-08T18:33:33;-3.20;99.90